You are not logged in, Click here to log in
ICAO: RJCC Country: 日本北海道千歲市與苫小牧市交界
Latitude: 42.7876 Longitude: 141.679
Total Arrivals: 85 Total Departures: 85
Latest Arrival: OZ174 (RKSI-RJCC)CHU. CHUHAO Latest Departure: GK110 (RJCC-RJAA)CHU. CHUHAO
Scenery:
METAR : RJCC 250500Z 34015KT 9999 FEW015 BKN045 22/14 Q1008 RMK 1ST015 7CU045 A2977

新千歳空港 CTS